createdAt,value
2022-08-09T00:00:04.390Z,4.60
2022-08-09T00:00:57.638Z,4.40
2022-08-09T00:01:56.628Z,4.40
2022-08-09T00:02:56.582Z,7.20
2022-08-09T00:04:10.602Z,6.00
2022-08-09T00:05:03.250Z,4.10
2022-08-09T00:06:18.956Z,8.50
2022-08-09T00:06:57.532Z,3.70
2022-08-09T00:07:56.521Z,4.70
2022-08-09T00:08:57.063Z,6.80
2022-08-09T00:09:56.503Z,4.40
2022-08-09T00:10:58.177Z,6.00
2022-08-09T00:12:03.831Z,5.50
2022-08-09T00:12:57.471Z,3.50
2022-08-09T00:13:56.452Z,4.40
2022-08-09T00:14:56.901Z,3.60
2022-08-09T00:15:59.919Z,4.80
2022-08-09T00:16:57.434Z,4.40
2022-08-09T00:18:05.171Z,4.30
2022-08-09T00:18:57.411Z,5.80
2022-08-09T00:19:56.392Z,4.30
2022-08-09T00:20:56.432Z,4.80
2022-08-09T00:21:57.159Z,4.50
2022-08-09T00:22:56.353Z,3.60
2022-08-09T00:24:00.037Z,5.90
2022-08-09T00:24:56.363Z,4.80
2022-08-09T00:25:56.361Z,4.40
2022-08-09T00:26:57.378Z,6.20
2022-08-09T00:27:56.313Z,5.50
2022-08-09T00:28:56.292Z,3.80
2022-08-09T00:30:18.002Z,5.90
2022-08-09T00:30:57.313Z,4.60
2022-08-09T00:31:59.027Z,4.60
2022-08-09T00:32:56.251Z,5.70
2022-08-09T00:33:56.243Z,5.90
2022-08-09T00:34:56.238Z,5.50
2022-08-09T00:35:56.263Z,4.90
2022-08-09T00:36:56.240Z,5.80
2022-08-09T00:37:56.203Z,8.10
2022-08-09T00:38:56.193Z,4.00
2022-08-09T00:40:09.471Z,4.30
2022-08-09T00:40:58.125Z,4.80
2022-08-09T00:44:09.934Z,5.80
2022-08-09T00:44:10.864Z,4.50
2022-08-09T00:44:13.222Z,4.90
2022-08-09T00:44:57.122Z,6.90
2022-08-09T00:45:56.113Z,7.70
2022-08-09T00:47:04.458Z,7.30
2022-08-09T00:47:57.188Z,7.60
2022-08-09T00:48:56.343Z,5.10
2022-08-09T00:49:56.486Z,5.30
2022-08-09T00:50:56.063Z,5.90
2022-08-09T00:51:56.428Z,6.50
2022-08-09T00:52:56.062Z,7.00
2022-08-09T00:53:56.233Z,5.70
2022-08-09T00:54:56.015Z,5.30
2022-08-09T00:56:05.337Z,4.60
2022-08-09T00:56:56.994Z,6.30
2022-08-09T00:57:59.340Z,4.00
2022-08-09T00:58:55.973Z,5.10
2022-08-09T00:59:55.963Z,5.10
2022-08-09T01:00:58.877Z,4.90
2022-08-09T01:01:55.980Z,4.80
2022-08-09T01:02:56.183Z,3.90
2022-08-09T01:03:56.692Z,4.70
2022-08-09T01:04:55.904Z,7.60
2022-08-09T01:05:55.913Z,5.90
2022-08-09T01:06:55.886Z,4.50
2022-08-09T01:08:00.342Z,7.60
2022-08-09T01:08:56.862Z,4.20
2022-08-09T01:09:55.859Z,4.70
2022-08-09T01:10:55.833Z,8.80
2022-08-09T01:11:56.166Z,6.20
2022-08-09T01:12:55.867Z,5.50
2022-08-09T01:14:00.368Z,6.20
2022-08-09T01:14:56.891Z,5.30
2022-08-09T01:15:55.834Z,6.60
2022-08-09T01:16:55.837Z,5.80
2022-08-09T01:17:57.703Z,6.60
2022-08-09T01:19:02.691Z,5.00
2022-08-09T01:20:01.783Z,6.40
2022-08-09T01:20:56.723Z,8.20
2022-08-09T01:21:55.723Z,5.40
2022-08-09T01:22:55.705Z,6.30
2022-08-09T01:24:01.841Z,5.20
2022-08-09T01:24:56.883Z,4.80
2022-08-09T01:25:55.681Z,5.60
2022-08-09T01:26:55.696Z,5.00
2022-08-09T01:27:57.021Z,3.90
2022-08-09T01:28:55.654Z,6.30
2022-08-09T01:29:56.708Z,6.90
2022-08-09T01:30:55.643Z,7.40
2022-08-09T01:32:31.281Z,5.90
2022-08-09T01:32:56.594Z,8.10
2022-08-09T01:33:55.616Z,6.60
2022-08-09T01:34:55.573Z,4.90
2022-08-09T01:35:55.564Z,5.60
2022-08-09T01:36:55.592Z,3.80
2022-08-09T01:38:09.272Z,5.40
2022-08-09T01:38:56.564Z,6.00
2022-08-09T01:39:55.524Z,5.70
2022-08-09T01:41:05.308Z,7.20
2022-08-09T01:42:00.560Z,6.40
2022-08-09T01:42:56.493Z,5.10
2022-08-09T01:43:55.482Z,7.90
2022-08-09T01:44:55.474Z,6.00
2022-08-09T01:45:58.012Z,6.50
2022-08-09T01:46:55.444Z,6.60
2022-08-09T01:47:55.434Z,7.30
2022-08-09T01:48:55.446Z,5.40
2022-08-09T01:49:55.416Z,5.20
2022-08-09T01:50:55.530Z,4.90
2022-08-09T01:51:55.455Z,7.00
2022-08-09T01:52:55.381Z,6.90
2022-08-09T01:53:57.868Z,7.60
2022-08-09T01:54:55.364Z,4.60
2022-08-09T01:55:55.353Z,6.10
2022-08-09T01:56:55.334Z,6.10
2022-08-09T01:57:55.356Z,5.10
2022-08-09T01:58:55.354Z,4.60
2022-08-09T02:00:00.206Z,5.20
2022-08-09T02:00:56.341Z,6.20
2022-08-09T02:01:59.259Z,6.20
2022-08-09T02:02:56.274Z,4.30
2022-08-09T02:03:55.295Z,5.80
2022-08-09T02:04:55.254Z,5.60
2022-08-09T02:06:06.459Z,4.80
2022-08-09T02:06:58.573Z,7.00
2022-08-09T02:08:40.138Z,6.70
2022-08-09T02:08:59.461Z,5.80
2022-08-09T02:09:59.491Z,4.70
2022-08-09T02:10:56.174Z,5.10
2022-08-09T02:11:55.175Z,8.80
2022-08-09T02:12:55.163Z,6.00
2022-08-09T02:14:07.188Z,5.50
2022-08-09T02:14:56.163Z,6.50
2022-08-09T02:15:55.126Z,6.30
2022-08-09T02:17:14.997Z,7.90
2022-08-09T02:18:10.611Z,6.00
2022-08-09T02:18:56.134Z,6.30
2022-08-09T02:19:55.085Z,5.30
2022-08-09T02:20:55.078Z,5.30
2022-08-09T02:21:55.218Z,7.20
2022-08-09T02:22:55.057Z,5.40
2022-08-09T02:23:55.034Z,5.10
2022-08-09T02:24:56.734Z,5.10
2022-08-09T02:25:55.783Z,4.70
2022-08-09T02:26:55.006Z,5.90
2022-08-09T02:28:00.332Z,4.60
2022-08-09T02:28:55.984Z,6.30
2022-08-09T02:29:55.013Z,5.10
2022-08-09T02:30:54.995Z,4.60
2022-08-09T02:31:54.961Z,6.10
2022-08-09T02:32:54.955Z,8.30
2022-08-09T02:34:07.330Z,5.80
2022-08-09T02:34:57.783Z,7.80
2022-08-09T02:36:03.001Z,7.50
2022-08-09T02:36:55.930Z,6.20
2022-08-09T02:37:54.893Z,6.20
2022-08-09T02:38:54.891Z,6.00
2022-08-09T02:39:55.249Z,5.50
2022-08-09T02:40:55.978Z,6.80
2022-08-09T02:41:54.892Z,5.90
2022-08-09T02:42:54.836Z,5.00
2022-08-09T02:43:55.835Z,7.70
2022-08-09T02:44:54.814Z,5.60
2022-08-09T02:45:54.805Z,5.50
2022-08-09T02:46:54.785Z,6.10
2022-08-09T02:47:58.810Z,6.90
2022-08-09T02:48:54.766Z,5.10
2022-08-09T02:50:01.766Z,6.50
2022-08-09T02:50:56.505Z,4.90
2022-08-09T02:51:54.755Z,5.40
2022-08-09T02:52:55.385Z,5.50
2022-08-09T02:54:00.410Z,6.20
2022-08-09T02:54:57.354Z,7.70
2022-08-09T02:55:58.403Z,7.90
2022-08-09T02:56:57.156Z,6.00
2022-08-09T02:58:32.139Z,7.30
2022-08-09T02:58:55.685Z,6.20
2022-08-09T03:00:21.499Z,7.20
2022-08-09T03:00:58.735Z,5.50
2022-08-09T03:02:06.411Z,6.40
2022-08-09T03:02:58.712Z,7.30
2022-08-09T03:04:18.272Z,7.90
2022-08-09T03:04:55.616Z,14.00
2022-08-09T03:05:55.555Z,5.70
2022-08-09T03:06:54.626Z,5.80
2022-08-09T03:07:55.448Z,6.70
2022-08-09T03:08:54.545Z,7.10
2022-08-09T03:09:56.454Z,7.90
2022-08-09T03:10:54.525Z,8.30
2022-08-09T03:12:10.999Z,6.30
2022-08-09T03:12:55.506Z,6.10
2022-08-09T03:13:59.467Z,6.50
2022-08-09T03:14:55.476Z,7.10
2022-08-09T03:16:06.412Z,6.60
2022-08-09T03:16:55.496Z,8.40
2022-08-09T03:17:58.889Z,8.80
2022-08-09T03:18:55.712Z,5.50
2022-08-09T03:20:00.595Z,6.90
2022-08-09T03:20:55.416Z,7.60
2022-08-09T03:21:54.406Z,8.40
2022-08-09T03:22:54.693Z,6.00
2022-08-09T03:24:03.781Z,9.20
2022-08-09T03:25:06.441Z,8.70
2022-08-09T03:25:58.154Z,7.20
2022-08-09T03:26:54.355Z,6.00
2022-08-09T03:27:55.218Z,6.10
2022-08-09T03:28:55.105Z,7.10
2022-08-09T03:29:57.804Z,6.90
2022-08-09T03:30:55.317Z,7.70
2022-08-09T03:31:59.951Z,7.60
2022-08-09T03:32:55.297Z,5.30
2022-08-09T03:33:56.556Z,6.20
2022-08-09T03:34:55.783Z,8.20
2022-08-09T03:36:14.056Z,8.60
2022-08-09T03:36:58.500Z,7.40
2022-08-09T03:37:58.604Z,7.30
2022-08-09T03:38:54.226Z,7.00
2022-08-09T03:39:55.574Z,6.20
2022-08-09T03:40:54.244Z,6.60
2022-08-09T03:42:06.711Z,7.90
2022-08-09T03:42:55.185Z,5.80
2022-08-09T03:44:08.581Z,7.70
2022-08-09T03:44:55.166Z,6.90
2022-08-09T03:46:04.144Z,6.10
2022-08-09T03:46:55.137Z,7.40
2022-08-09T03:47:54.125Z,7.50
2022-08-09T03:48:54.155Z,7.50
2022-08-09T03:49:58.274Z,7.40
2022-08-09T03:50:54.127Z,6.50
2022-08-09T03:51:57.644Z,6.60
2022-08-09T03:52:55.068Z,9.30
2022-08-09T03:53:54.069Z,8.60
2022-08-09T03:54:54.056Z,6.50
2022-08-09T03:55:54.068Z,6.60
2022-08-09T03:56:54.069Z,7.20
2022-08-09T03:58:06.683Z,8.00
2022-08-09T03:58:55.014Z,7.00
2022-08-09T03:59:55.958Z,8.70
2022-08-09T04:00:54.038Z,5.40
2022-08-09T04:02:01.508Z,7.10
2022-08-09T04:02:53.991Z,9.00
2022-08-09T04:04:02.164Z,7.20
2022-08-09T04:04:54.947Z,7.80
2022-08-09T04:05:53.937Z,10.60
2022-08-09T04:06:53.937Z,8.50
2022-08-09T04:07:57.134Z,8.10
2022-08-09T04:08:53.930Z,7.70
2022-08-09T04:09:53.943Z,8.80
2022-08-09T04:10:53.909Z,10.00
2022-08-09T04:11:53.899Z,8.20
2022-08-09T04:12:53.859Z,8.40
2022-08-09T04:14:53.491Z,8.30
2022-08-09T04:15:02.174Z,9.20
2022-08-09T04:16:20.030Z,8.40
2022-08-09T04:16:54.829Z,7.40
2022-08-09T04:17:53.856Z,8.50
2022-08-09T04:18:53.790Z,11.40
2022-08-09T04:19:56.210Z,10.00
2022-08-09T04:20:53.769Z,10.30
2022-08-09T04:21:53.760Z,9.50
2022-08-09T04:22:53.748Z,8.50
2022-08-09T04:23:57.808Z,7.90
2022-08-09T04:24:53.734Z,8.70
2022-08-09T04:25:53.768Z,8.80
2022-08-09T04:26:53.719Z,9.00
2022-08-09T04:27:53.689Z,10.40
2022-08-09T04:28:58.223Z,8.70
2022-08-09T04:29:54.718Z,9.00
2022-08-09T04:30:53.668Z,7.90
2022-08-09T04:31:53.658Z,8.80
2022-08-09T04:32:54.085Z,10.80
2022-08-09T04:33:57.113Z,8.60
2022-08-09T04:34:57.464Z,10.50
2022-08-09T04:35:53.631Z,8.60
2022-08-09T04:36:53.596Z,9.10
2022-08-09T04:37:53.621Z,10.00
2022-08-09T04:38:53.601Z,9.60
2022-08-09T04:39:53.611Z,7.80
2022-08-09T04:40:56.059Z,8.00
2022-08-09T04:41:53.538Z,10.50
2022-08-09T04:42:53.539Z,11.70
2022-08-09T04:44:05.001Z,8.60
2022-08-09T04:44:54.506Z,8.20
2022-08-09T04:45:54.394Z,8.40
2022-08-09T04:46:58.539Z,8.10
2022-08-09T04:48:00.332Z,8.50
2022-08-09T04:48:58.274Z,8.90
2022-08-09T04:49:55.614Z,7.80
2022-08-09T04:50:53.469Z,8.80
2022-08-09T04:51:53.430Z,11.00
2022-08-09T04:52:53.420Z,9.10
2022-08-09T04:53:54.320Z,9.50
2022-08-09T04:54:54.398Z,8.40
2022-08-09T04:55:57.795Z,9.70
2022-08-09T04:56:54.389Z,8.50
2022-08-09T04:57:58.428Z,8.90
2022-08-09T04:58:54.360Z,9.20
2022-08-09T04:59:53.351Z,8.70
2022-08-09T05:00:54.433Z,9.10
2022-08-09T05:01:53.320Z,8.50
2022-08-09T05:02:53.329Z,9.10
2022-08-09T05:03:58.509Z,9.00
2022-08-09T05:04:55.675Z,10.10
2022-08-09T05:06:06.603Z,9.20
2022-08-09T05:06:54.271Z,10.80
2022-08-09T05:07:53.383Z,9.30
2022-08-09T05:08:53.312Z,9.00
2022-08-09T05:09:54.241Z,11.20
2022-08-09T05:10:53.250Z,7.70
2022-08-09T05:11:53.212Z,9.20
2022-08-09T05:12:53.207Z,9.30
2022-08-09T05:13:54.972Z,8.40
2022-08-09T05:14:53.209Z,8.70
2022-08-09T05:15:56.828Z,8.90
2022-08-09T05:16:59.254Z,10.00
2022-08-09T05:18:38.288Z,10.60
2022-08-09T05:18:58.675Z,9.30
2022-08-09T05:19:56.958Z,13.30
2022-08-09T05:20:53.116Z,9.90
2022-08-09T05:21:55.335Z,9.20
2022-08-09T05:24:00.250Z,11.20
2022-08-09T05:24:00.677Z,11.50
2022-08-09T05:24:57.124Z,12.40
2022-08-09T05:25:54.077Z,10.80
2022-08-09T05:26:53.079Z,14.70
2022-08-09T05:27:53.038Z,9.80
2022-08-09T05:28:53.030Z,13.70
2022-08-09T05:29:53.081Z,11.60
2022-08-09T05:30:53.018Z,8.00
2022-08-09T05:31:57.013Z,8.40
2022-08-09T05:32:53.984Z,7.30
2022-08-09T05:33:52.982Z,9.20
2022-08-09T05:34:52.977Z,8.20
2022-08-09T05:35:52.970Z,9.60
2022-08-09T05:36:52.981Z,10.40
2022-08-09T05:37:52.961Z,8.40
2022-08-09T05:38:52.930Z,9.10
2022-08-09T05:39:52.956Z,10.80
2022-08-09T05:40:52.902Z,9.80
2022-08-09T05:41:52.920Z,8.90
2022-08-09T05:42:52.878Z,8.30
2022-08-09T05:43:52.880Z,9.70
2022-08-09T05:44:52.881Z,9.40
2022-08-09T05:45:57.015Z,9.10
2022-08-09T05:46:52.858Z,8.30
2022-08-09T05:47:55.003Z,10.00
2022-08-09T05:48:58.911Z,9.30
2022-08-09T05:50:29.830Z,11.00
2022-08-09T05:51:16.697Z,8.80
2022-08-09T05:51:53.779Z,8.50
2022-08-09T05:52:54.163Z,9.30
2022-08-09T05:53:57.453Z,9.60
2022-08-09T05:54:52.742Z,8.00
2022-08-09T05:55:53.144Z,8.50
2022-08-09T05:56:54.525Z,8.30
2022-08-09T05:57:56.662Z,9.50
2022-08-09T05:58:58.270Z,10.20
2022-08-09T05:59:53.690Z,9.50
2022-08-09T06:00:52.761Z,9.80
2022-08-09T06:01:52.681Z,7.80
2022-08-09T06:02:54.587Z,8.60
2022-08-09T06:03:58.429Z,9.40
2022-08-09T06:04:53.672Z,9.00
2022-08-09T06:06:04.593Z,6.40
2022-08-09T06:06:53.611Z,8.40
2022-08-09T06:08:05.368Z,9.90
2022-08-09T06:08:53.592Z,9.30
2022-08-09T06:09:54.538Z,11.40
2022-08-09T06:10:53.710Z,7.90
2022-08-09T06:11:57.764Z,10.40
2022-08-09T06:13:04.576Z,8.20
2022-08-09T06:13:53.533Z,12.30
2022-08-09T06:14:52.594Z,9.40
2022-08-09T06:15:52.799Z,9.10
2022-08-09T06:16:52.696Z,7.60
2022-08-09T06:17:52.491Z,8.20
2022-08-09T06:18:52.481Z,9.30
2022-08-09T06:19:52.502Z,8.80
2022-08-09T06:20:54.906Z,8.90
2022-08-09T06:21:58.881Z,10.10
2022-08-09T06:22:53.441Z,19.10
2022-08-09T06:23:57.688Z,10.80
2022-08-09T06:24:54.170Z,7.40
2022-08-09T06:25:55.356Z,14.40
2022-08-09T06:26:52.392Z,10.10
2022-08-09T06:27:52.381Z,9.80
2022-08-09T06:28:59.927Z,10.10
2022-08-09T06:30:04.270Z,10.40
2022-08-09T06:30:53.351Z,8.30
2022-08-09T06:32:17.289Z,9.40
2022-08-09T06:33:13.239Z,7.40
2022-08-09T06:33:53.557Z,8.80
2022-08-09T06:34:53.234Z,7.80
2022-08-09T06:35:56.823Z,10.70
2022-08-09T06:36:59.149Z,9.30
2022-08-09T06:38:05.850Z,9.10
2022-08-09T06:38:53.293Z,9.50
2022-08-09T06:39:59.721Z,9.80
2022-08-09T06:40:55.033Z,9.40
2022-08-09T06:42:09.108Z,9.30
2022-08-09T06:42:53.219Z,8.10
2022-08-09T06:43:53.171Z,9.00
2022-08-09T06:44:54.487Z,8.70
2022-08-09T06:46:05.083Z,7.70
2022-08-09T06:46:55.329Z,8.30
2022-08-09T06:47:58.026Z,9.90
2022-08-09T06:48:54.290Z,9.30
2022-08-09T06:50:13.450Z,10.50
2022-08-09T06:50:53.132Z,10.20
2022-08-09T06:51:52.129Z,9.50
2022-08-09T06:52:52.151Z,8.40
2022-08-09T06:53:52.103Z,9.80
2022-08-09T06:54:52.131Z,9.60
2022-08-09T06:55:52.082Z,10.30
2022-08-09T06:56:52.092Z,10.30
2022-08-09T06:58:02.462Z,8.40
2022-08-09T07:00:49.343Z,10.40
2022-08-09T07:00:49.732Z,10.00
2022-08-09T07:00:58.527Z,7.80
2022-08-09T07:01:57.967Z,7.90
2022-08-09T07:02:53.058Z,9.10
2022-08-09T07:03:56.624Z,9.40
2022-08-09T07:04:52.983Z,7.10
2022-08-09T07:06:03.034Z,9.80
2022-08-09T07:06:53.334Z,9.10
2022-08-09T07:08:00.201Z,7.70
2022-08-09T07:08:52.937Z,11.90
2022-08-09T07:09:55.638Z,7.70
2022-08-09T07:10:52.923Z,7.60
2022-08-09T07:11:53.643Z,9.10
2022-08-09T07:12:57.655Z,8.90
2022-08-09T07:14:05.316Z,10.90
2022-08-09T07:14:53.557Z,8.30
2022-08-09T07:16:38.485Z,7.00
2022-08-09T07:16:58.259Z,8.50
2022-08-09T07:17:55.980Z,7.80
2022-08-09T07:18:52.835Z,9.30
2022-08-09T07:19:55.565Z,10.60
2022-08-09T07:20:51.821Z,5.60
2022-08-09T07:21:57.355Z,9.50
2022-08-09T07:22:53.530Z,7.70
2022-08-09T07:23:57.818Z,8.40
2022-08-09T07:24:52.805Z,8.40
2022-08-09T07:25:52.169Z,7.90
2022-08-09T07:26:51.755Z,18.90
2022-08-09T07:27:53.665Z,16.20
2022-08-09T07:29:01.371Z,14.00
2022-08-09T07:29:52.715Z,8.10
2022-08-09T07:30:51.744Z,8.80
2022-08-09T07:31:51.683Z,8.80
2022-08-09T07:32:51.832Z,6.80
2022-08-09T07:33:53.233Z,8.50
2022-08-09T07:34:52.266Z,9.00
2022-08-09T07:35:53.885Z,8.80
2022-08-09T07:36:52.864Z,8.80
2022-08-09T07:37:51.664Z,9.00
2022-08-09T07:39:00.428Z,7.90
2022-08-09T07:39:52.693Z,8.40
2022-08-09T07:41:00.930Z,8.40
2022-08-09T07:41:52.587Z,7.90
2022-08-09T07:42:51.574Z,8.30
2022-08-09T07:43:56.307Z,9.80
2022-08-09T07:44:54.581Z,7.90
2022-08-09T07:45:51.564Z,7.60
2022-08-09T07:46:51.540Z,8.60
2022-08-09T07:48:00.599Z,7.20
2022-08-09T07:48:58.911Z,8.60
2022-08-09T07:50:08.047Z,6.50
2022-08-09T07:50:52.951Z,10.30
2022-08-09T07:52:05.713Z,7.90
2022-08-09T07:52:52.466Z,10.50
2022-08-09T07:54:06.770Z,8.40
2022-08-09T07:54:52.458Z,6.60
2022-08-09T07:56:03.256Z,8.00
2022-08-09T07:56:52.444Z,6.90
2022-08-09T07:57:51.417Z,7.00
2022-08-09T07:58:51.425Z,9.20
2022-08-09T08:00:03.652Z,8.60
2022-08-09T08:00:58.925Z,7.50
2022-08-09T08:01:53.102Z,9.20
2022-08-09T08:02:51.348Z,7.40
2022-08-09T08:03:51.355Z,8.50
2022-08-09T08:04:53.499Z,7.40
2022-08-09T08:05:57.541Z,7.40
2022-08-09T08:06:55.732Z,6.80
2022-08-09T08:08:42.837Z,7.60
2022-08-09T08:09:03.273Z,8.10
2022-08-09T08:10:07.631Z,7.70
2022-08-09T08:11:15.173Z,7.30
2022-08-09T08:12:10.123Z,8.70
2022-08-09T08:12:52.336Z,8.10
2022-08-09T08:13:56.307Z,6.70
2022-08-09T08:14:52.216Z,6.20
2022-08-09T08:15:51.223Z,7.50
2022-08-09T08:17:07.742Z,8.80
2022-08-09T08:17:58.027Z,7.40
2022-08-09T08:18:52.216Z,6.90
2022-08-09T08:19:51.192Z,8.50
2022-08-09T08:20:51.157Z,6.20
2022-08-09T08:21:52.791Z,5.80
2022-08-09T08:22:51.176Z,7.70
2022-08-09T08:23:56.159Z,9.30
2022-08-09T08:24:52.116Z,6.80
2022-08-09T08:25:53.989Z,6.00
2022-08-09T08:26:56.055Z,6.60
2022-08-09T08:27:51.086Z,7.70
2022-08-09T08:28:51.096Z,6.30
2022-08-09T08:29:51.078Z,6.40
2022-08-09T08:30:51.113Z,4.90
2022-08-09T08:32:03.946Z,4.90
2022-08-09T08:32:53.535Z,6.80
2022-08-09T08:33:54.025Z,6.40
2022-08-09T08:34:52.143Z,7.70
2022-08-09T08:35:59.509Z,6.40
2022-08-09T08:36:52.073Z,7.30
2022-08-09T08:37:59.418Z,7.80
2022-08-09T08:38:51.959Z,5.90
2022-08-09T08:39:51.058Z,6.80
2022-08-09T08:40:50.948Z,5.50
2022-08-09T08:41:52.363Z,7.90
2022-08-09T08:42:50.938Z,6.60
2022-08-09T08:43:50.921Z,5.90
2022-08-09T08:44:50.938Z,7.80
2022-08-09T08:45:51.389Z,9.20
2022-08-09T08:47:03.341Z,7.30
2022-08-09T08:47:51.877Z,6.20
2022-08-09T08:48:54.016Z,5.90
2022-08-09T08:49:50.858Z,6.20
2022-08-09T08:50:52.046Z,6.00
2022-08-09T08:52:00.371Z,7.50
2022-08-09T08:52:59.682Z,8.10
2022-08-09T08:54:03.085Z,7.40
2022-08-09T08:54:51.819Z,6.60
2022-08-09T08:55:52.710Z,7.50
2022-08-09T08:56:52.116Z,8.00
2022-08-09T08:57:57.421Z,6.60
2022-08-09T08:58:51.749Z,12.20
2022-08-09T08:59:53.779Z,6.70
2022-08-09T09:00:56.523Z,7.10
2022-08-09T09:01:52.907Z,8.90
2022-08-09T09:02:52.486Z,9.40
2022-08-09T09:03:50.820Z,5.90
2022-08-09T09:04:52.845Z,7.10
2022-08-09T09:05:58.767Z,5.40
2022-08-09T09:06:51.663Z,6.50
2022-08-09T09:07:50.651Z,6.20
2022-08-09T09:08:52.642Z,7.10
2022-08-09T09:10:01.979Z,7.60
2022-08-09T09:10:51.629Z,7.80
2022-08-09T09:11:50.642Z,5.30
2022-08-09T09:12:50.609Z,7.80
2022-08-09T09:13:55.800Z,7.40
2022-08-09T09:14:51.922Z,5.30
2022-08-09T09:15:50.569Z,7.20
2022-08-09T09:16:50.588Z,5.70
2022-08-09T09:17:52.718Z,6.30
2022-08-09T09:18:58.136Z,7.50
2022-08-09T09:19:51.530Z,7.00
2022-08-09T09:20:50.539Z,9.80
2022-08-09T09:21:50.503Z,6.40
2022-08-09T09:22:50.491Z,7.60
2022-08-09T09:23:58.497Z,6.60
2022-08-09T09:24:51.492Z,7.00
2022-08-09T09:26:02.306Z,7.00
2022-08-09T09:26:51.462Z,6.60
2022-08-09T09:28:06.307Z,5.50
2022-08-09T09:29:03.640Z,5.60
2022-08-09T09:30:14.063Z,6.10
2022-08-09T09:30:51.424Z,5.80
2022-08-09T09:32:03.828Z,7.70
2022-08-09T09:32:51.422Z,6.10
2022-08-09T09:33:56.840Z,6.20
2022-08-09T09:34:51.361Z,5.70
2022-08-09T09:36:00.815Z,6.50
2022-08-09T09:36:53.805Z,8.30
2022-08-09T09:37:50.323Z,7.50
2022-08-09T09:38:50.322Z,7.20
2022-08-09T09:39:56.681Z,7.90
2022-08-09T09:40:51.352Z,6.10
2022-08-09T09:41:50.967Z,6.70
2022-08-09T09:42:50.282Z,5.90
2022-08-09T09:44:12.054Z,6.60
2022-08-09T09:44:51.266Z,5.20
2022-08-09T09:46:39.072Z,7.40
2022-08-09T09:46:52.585Z,8.40
2022-08-09T09:47:58.320Z,7.10
2022-08-09T09:48:51.243Z,6.00
2022-08-09T09:50:13.633Z,8.70
2022-08-09T09:50:52.587Z,8.50
2022-08-09T09:51:51.237Z,6.80
2022-08-09T09:52:54.052Z,7.30
2022-08-09T09:54:01.180Z,7.40
2022-08-09T09:54:54.868Z,6.50
2022-08-09T09:55:50.133Z,8.60
2022-08-09T09:56:53.355Z,4.80
2022-08-09T09:58:03.779Z,5.00
2022-08-09T09:58:51.669Z,5.40
2022-08-09T09:59:52.256Z,5.20
2022-08-09T10:00:55.770Z,6.00
2022-08-09T10:01:52.561Z,5.70
2022-08-09T10:02:57.341Z,4.50
2022-08-09T10:03:56.309Z,6.60
2022-08-09T10:04:51.032Z,7.10
2022-08-09T10:06:03.886Z,6.90
2022-08-09T10:06:51.710Z,7.10
2022-08-09T10:08:10.642Z,5.90
2022-08-09T10:08:54.727Z,4.50
2022-08-09T10:09:55.075Z,6.20
2022-08-09T10:10:50.003Z,6.20
2022-08-09T10:12:11.458Z,5.00
2022-08-09T10:12:52.112Z,4.90
2022-08-09T10:13:50.395Z,6.10
2022-08-09T10:14:51.764Z,6.40
2022-08-09T10:16:08.983Z,6.20
2022-08-09T10:16:58.093Z,6.30
2022-08-09T10:17:56.455Z,8.30
2022-08-09T10:18:51.417Z,5.60
2022-08-09T10:19:53.074Z,8.40
2022-08-09T10:20:50.881Z,6.70
2022-08-09T10:21:49.853Z,6.00
2022-08-09T10:22:49.843Z,6.50
2022-08-09T10:23:49.845Z,5.60
2022-08-09T10:24:49.887Z,7.20
2022-08-09T10:26:06.267Z,5.90
2022-08-09T10:26:50.793Z,4.60
2022-08-09T10:27:57.937Z,5.80
2022-08-09T10:29:36.005Z,4.90
2022-08-09T10:30:56.807Z,5.80
2022-08-09T10:32:51.147Z,7.40
2022-08-09T10:34:08.173Z,7.20
2022-08-09T10:34:50.715Z,8.60
2022-08-09T10:35:49.709Z,6.90
2022-08-09T10:36:49.806Z,5.60
2022-08-09T10:37:51.789Z,7.20
2022-08-09T10:38:56.724Z,4.50
2022-08-09T10:39:50.742Z,5.50
2022-08-09T10:40:50.238Z,5.40
2022-08-09T10:41:50.775Z,6.30
2022-08-09T10:42:53.192Z,7.00
2022-08-09T10:44:01.450Z,7.30
2022-08-09T10:44:50.605Z,9.30
2022-08-09T10:45:59.801Z,7.80
2022-08-09T10:47:00.831Z,6.50
2022-08-09T10:48:20.462Z,6.40
2022-08-09T10:48:52.255Z,10.50
2022-08-09T10:49:51.649Z,9.50
2022-08-09T10:50:49.555Z,9.60
2022-08-09T10:51:52.902Z,8.00
2022-08-09T10:52:49.627Z,7.00
2022-08-09T10:53:54.662Z,6.50
2022-08-09T10:54:50.503Z,4.90
2022-08-09T10:55:57.982Z,6.60
2022-08-09T10:56:50.505Z,9.40
2022-08-09T10:57:51.903Z,5.60
2022-08-09T10:58:50.535Z,5.40
2022-08-09T10:59:57.828Z,8.20
2022-08-09T11:01:10.809Z,7.90
2022-08-09T11:03:13.618Z,6.60
2022-08-09T11:03:18.707Z,7.50
2022-08-09T11:03:53.316Z,6.90
2022-08-09T11:04:55.665Z,5.50
2022-08-09T11:05:59.970Z,5.30
2022-08-09T11:06:50.364Z,6.50
2022-08-09T11:07:55.047Z,5.70
2022-08-09T11:08:51.802Z,4.80
2022-08-09T11:09:49.374Z,6.50
2022-08-09T11:10:54.624Z,6.90
2022-08-09T11:11:51.923Z,5.90
2022-08-09T11:12:49.307Z,6.00
2022-08-09T11:13:54.556Z,5.10
2022-08-09T11:14:50.388Z,5.60
2022-08-09T11:15:50.792Z,4.90
2022-08-09T11:16:49.266Z,6.40
2022-08-09T11:17:53.354Z,4.40
2022-08-09T11:18:50.238Z,5.70
2022-08-09T11:20:08.054Z,4.70
2022-08-09T11:20:50.246Z,7.40
2022-08-09T11:21:56.940Z,5.60
2022-08-09T11:22:55.569Z,5.20
2022-08-09T11:23:50.217Z,4.70
2022-08-09T11:24:49.176Z,4.90
2022-08-09T11:25:49.400Z,4.70
2022-08-09T11:26:54.808Z,3.70
2022-08-09T11:28:09.219Z,4.70
2022-08-09T11:28:56.240Z,6.40
2022-08-09T11:30:04.721Z,6.20
2022-08-09T11:30:50.108Z,5.70
2022-08-09T11:31:52.568Z,4.50
2022-08-09T11:32:49.134Z,5.40
2022-08-09T11:33:50.290Z,6.30
2022-08-09T11:34:51.586Z,6.80
2022-08-09T11:35:52.078Z,5.10
2022-08-09T11:36:49.078Z,6.60
2022-08-09T11:37:49.801Z,5.30
2022-08-09T11:38:49.089Z,4.70
2022-08-09T11:39:49.058Z,7.00
2022-08-09T11:40:49.010Z,6.30
2022-08-09T11:41:50.000Z,9.60
2022-08-09T11:42:49.131Z,8.40
2022-08-09T11:43:49.335Z,6.20
2022-08-09T11:44:48.987Z,4.60
2022-08-09T11:45:48.971Z,4.90
2022-08-09T11:46:48.977Z,4.60
2022-08-09T11:47:48.937Z,5.40
2022-08-09T11:48:48.909Z,5.30
2022-08-09T11:50:54.163Z,4.20
2022-08-09T11:50:56.023Z,4.60
2022-08-09T11:53:03.320Z,5.60
2022-08-09T11:53:15.454Z,4.00
2022-08-09T11:54:00.994Z,5.30
2022-08-09T11:54:49.851Z,10.30
2022-08-09T11:55:52.872Z,5.60
2022-08-09T11:56:49.839Z,6.90
2022-08-09T11:58:02.067Z,6.60
2022-08-09T11:58:50.278Z,5.80
2022-08-09T11:59:52.347Z,5.20
2022-08-09T12:00:49.903Z,5.40
2022-08-09T12:02:15.918Z,4.80
2022-08-09T12:02:49.819Z,5.70
2022-08-09T12:03:56.039Z,4.10
2022-08-09T12:04:49.814Z,5.80
2022-08-09T12:05:49.742Z,5.70
2022-08-09T12:06:53.083Z,4.10
2022-08-09T12:07:49.723Z,4.50
2022-08-09T12:08:48.714Z,4.20
2022-08-09T12:09:50.744Z,5.70
2022-08-09T12:10:48.740Z,4.00
2022-08-09T12:12:03.327Z,4.30
2022-08-09T12:12:52.646Z,3.70
2022-08-09T12:14:10.511Z,5.20
2022-08-09T12:15:08.225Z,5.90
2022-08-09T12:15:52.387Z,4.30
2022-08-09T12:16:48.622Z,4.80
2022-08-09T12:17:53.389Z,4.70
2022-08-09T12:18:53.885Z,6.20
2022-08-09T12:19:48.613Z,5.40
2022-08-09T12:20:48.583Z,5.20
2022-08-09T12:21:50.495Z,3.60
2022-08-09T12:22:50.271Z,4.90
2022-08-09T12:23:58.823Z,6.20
2022-08-09T12:24:49.543Z,6.10
2022-08-09T12:25:49.485Z,4.60
2022-08-09T12:28:58.370Z,4.70
2022-08-09T12:28:59.481Z,4.60
2022-08-09T12:29:12.462Z,4.90
2022-08-09T12:29:54.564Z,5.60
2022-08-09T12:30:49.506Z,4.80
2022-08-09T12:31:59.181Z,6.80
2022-08-09T12:32:49.456Z,5.00
2022-08-09T12:33:59.143Z,4.60
2022-08-09T12:34:49.437Z,5.00
2022-08-09T12:35:48.415Z,5.20
2022-08-09T12:36:48.437Z,4.10
2022-08-09T12:37:51.609Z,4.10
2022-08-09T12:38:48.386Z,6.10
2022-08-09T12:39:48.483Z,5.30
2022-08-09T12:40:48.397Z,5.80
2022-08-09T12:41:48.353Z,5.10
2022-08-09T12:42:50.226Z,4.70
2022-08-09T12:44:06.245Z,4.00
2022-08-09T12:44:52.187Z,5.80
2022-08-09T12:46:00.407Z,5.20
2022-08-09T12:46:49.857Z,4.80
2022-08-09T12:47:50.264Z,5.60
2022-08-09T12:48:49.185Z,4.60
2022-08-09T12:49:51.290Z,5.70
2022-08-09T12:50:48.266Z,5.20
2022-08-09T12:51:59.939Z,8.00
2022-08-09T12:53:09.046Z,5.40
2022-08-09T12:53:53.002Z,6.90
2022-08-09T12:56:12.174Z,4.80
2022-08-09T12:56:14.166Z,4.10
2022-08-09T12:56:51.220Z,4.90
2022-08-09T12:57:49.185Z,4.40
2022-08-09T12:58:52.359Z,6.50
2022-08-09T13:00:02.115Z,4.20
2022-08-09T13:00:49.271Z,3.40
2022-08-09T13:01:49.966Z,5.10
2022-08-09T13:02:48.347Z,4.60
2022-08-09T13:03:57.147Z,6.20
2022-08-09T13:04:49.120Z,3.50
2022-08-09T13:05:51.718Z,3.60
2022-08-09T13:06:49.088Z,4.10
2022-08-09T13:07:50.046Z,4.00
2022-08-09T13:08:49.106Z,5.80
2022-08-09T13:09:55.822Z,5.30
2022-08-09T13:10:52.284Z,6.90
2022-08-09T13:11:48.029Z,4.70
2022-08-09T13:13:09.136Z,4.60
2022-08-09T13:14:37.171Z,5.30
2022-08-09T13:14:53.852Z,4.90
2022-08-09T13:15:48.991Z,5.50
2022-08-09T13:16:49.381Z,4.10
2022-08-09T13:18:05.411Z,6.40